createdAt,value
2024-02-14T00:01:38.047Z,92.80
2024-02-14T00:04:47.612Z,92.65
2024-02-14T00:07:55.844Z,93.10
2024-02-14T00:11:04.369Z,92.54
2024-02-14T00:14:12.597Z,92.16
2024-02-14T00:17:21.054Z,92.31
2024-02-14T00:20:30.828Z,92.05
2024-02-14T00:23:39.139Z,91.00
2024-02-14T00:26:48.488Z,91.08
2024-02-14T00:29:57.490Z,90.00
2024-02-14T00:33:06.211Z,88.67
2024-02-14T00:36:16.114Z,90.23
2024-02-14T00:39:24.397Z,89.08
2024-02-14T00:42:32.560Z,89.66
2024-02-14T00:45:42.184Z,88.32
2024-02-14T00:48:51.261Z,87.94
2024-02-14T00:52:00.973Z,88.05
2024-02-14T00:55:10.352Z,87.56
2024-02-14T00:58:18.607Z,87.23
2024-02-14T01:01:26.921Z,87.04
2024-02-14T01:04:37.315Z,85.91
2024-02-14T01:07:47.784Z,86.15
2024-02-14T01:10:56.052Z,85.51
2024-02-14T01:14:04.301Z,85.93
2024-02-14T01:17:12.709Z,85.19
2024-02-14T01:20:21.235Z,85.76
2024-02-14T01:23:30.941Z,85.05
2024-02-14T01:26:39.197Z,84.86
2024-02-14T01:29:47.531Z,84.71
2024-02-14T01:32:59.003Z,84.43
2024-02-14T01:36:09.515Z,84.54
2024-02-14T01:39:19.519Z,85.75
2024-02-14T01:42:28.873Z,85.54
2024-02-14T01:45:37.290Z,84.55
2024-02-14T01:48:45.859Z,84.21
2024-02-14T01:51:55.742Z,84.86
2024-02-14T01:55:09.703Z,84.31
2024-02-14T01:58:18.041Z,83.65
2024-02-14T02:01:26.680Z,83.84
2024-02-14T02:04:35.678Z,83.05
2024-02-14T02:07:45.201Z,82.97
2024-02-14T02:10:54.723Z,82.62
2024-02-14T02:14:02.872Z,82.17
2024-02-14T02:17:13.667Z,81.54
2024-02-14T02:25:34.724Z,80.64
2024-02-14T02:28:43.693Z,80.42
2024-02-14T02:31:53.272Z,80.26
2024-02-14T02:35:02.624Z,80.18
2024-02-14T02:38:10.989Z,79.74
2024-02-14T02:41:20.519Z,80.02
2024-02-14T02:44:28.749Z,80.10
2024-02-14T02:47:37.073Z,79.97
2024-02-14T02:50:45.888Z,81.00
2024-02-14T02:53:54.259Z,81.08
2024-02-14T02:57:04.608Z,81.66
2024-02-14T03:00:15.088Z,82.26
2024-02-14T03:03:29.188Z,82.36
2024-02-14T03:06:38.075Z,82.19
2024-02-14T03:09:46.454Z,82.12
2024-02-14T03:12:56.080Z,82.12
2024-02-14T03:16:05.399Z,81.97
2024-02-14T03:19:13.612Z,81.64
2024-02-14T03:22:21.921Z,81.12
2024-02-14T03:25:30.154Z,80.78
2024-02-14T03:28:39.640Z,80.35
2024-02-14T03:31:48.052Z,80.37
2024-02-14T03:34:57.402Z,80.68
2024-02-14T03:38:09.294Z,80.51
2024-02-14T03:41:18.076Z,80.94
2024-02-14T03:44:27.678Z,81.19
2024-02-14T03:47:36.392Z,81.90
2024-02-14T03:50:44.817Z,80.56
2024-02-14T03:53:53.333Z,79.67
2024-02-14T03:57:01.529Z,80.95
2024-02-14T04:00:13.315Z,80.97
2024-02-14T04:03:24.510Z,80.01
2024-02-14T04:06:33.914Z,79.91
2024-02-14T04:09:42.139Z,80.56
2024-02-14T04:12:50.399Z,79.47
2024-02-14T04:16:00.198Z,79.85
2024-02-14T04:19:09.544Z,80.99
2024-02-14T04:22:17.776Z,81.70
2024-02-14T04:25:26.017Z,82.31
2024-02-14T04:28:34.418Z,82.66
2024-02-14T04:31:44.458Z,83.16
2024-02-14T04:34:52.928Z,83.71
2024-02-14T04:38:01.238Z,83.97
2024-02-14T04:41:11.272Z,83.44
2024-02-14T04:44:20.615Z,83.28
2024-02-14T04:47:30.999Z,83.21
2024-02-14T04:50:39.393Z,83.88
2024-02-14T04:53:47.909Z,83.78
2024-02-14T04:56:59.301Z,83.42
2024-02-14T05:00:11.946Z,82.63
2024-02-14T05:03:22.278Z,82.10
2024-02-14T05:06:30.592Z,81.16
2024-02-14T05:09:39.212Z,80.93
2024-02-14T05:12:47.482Z,80.70
2024-02-14T05:15:55.602Z,80.28
2024-02-14T05:19:05.430Z,80.80
2024-02-14T05:22:13.855Z,80.50
2024-02-14T05:25:23.708Z,80.65
2024-02-14T05:28:32.024Z,80.49
2024-02-14T05:31:49.220Z,80.55
2024-02-14T05:34:58.812Z,81.16
2024-02-14T05:38:08.735Z,81.22
2024-02-14T05:41:19.093Z,80.88
2024-02-14T05:44:28.609Z,80.70
2024-02-14T05:47:36.856Z,81.33
2024-02-14T05:50:46.669Z,81.87
2024-02-14T05:53:55.037Z,81.33
2024-02-14T05:57:04.170Z,80.24
2024-02-14T06:00:14.735Z,79.38
2024-02-14T06:03:25.278Z,78.41
2024-02-14T06:06:34.876Z,78.16
2024-02-14T06:09:43.094Z,78.42
2024-02-14T06:12:51.287Z,78.44
2024-02-14T06:15:59.421Z,77.73
2024-02-14T06:19:07.799Z,77.01
2024-02-14T06:22:17.456Z,75.94
2024-02-14T06:25:25.935Z,75.62
2024-02-14T06:28:34.068Z,75.80
2024-02-14T06:31:42.374Z,76.05
2024-02-14T06:34:50.751Z,75.42
2024-02-14T06:38:04.389Z,75.33
2024-02-14T06:41:13.773Z,75.05
2024-02-14T06:44:21.957Z,74.68
2024-02-14T06:47:31.395Z,74.07
2024-02-14T06:50:39.844Z,73.76
2024-02-14T06:53:49.511Z,74.12
2024-02-14T06:56:57.943Z,73.47
2024-02-14T07:00:10.602Z,73.98
2024-02-14T07:03:19.330Z,73.03
2024-02-14T07:06:27.666Z,72.09
2024-02-14T07:09:39.298Z,71.77
2024-02-14T07:12:47.569Z,71.10
2024-02-14T07:15:55.789Z,71.73
2024-02-14T07:19:04.522Z,70.52
2024-02-14T07:22:12.905Z,69.63
2024-02-14T07:25:22.559Z,70.17
2024-02-14T07:28:30.862Z,69.09
2024-02-14T07:31:39.106Z,67.94
2024-02-14T07:34:47.341Z,67.79
2024-02-14T07:37:55.632Z,67.01
2024-02-14T07:41:05.638Z,66.81
2024-02-14T07:44:15.152Z,66.26
2024-02-14T07:47:23.341Z,65.26
2024-02-14T07:50:31.608Z,64.05
2024-02-14T07:53:39.811Z,63.58
2024-02-14T07:56:49.469Z,64.95
2024-02-14T07:59:57.718Z,64.65
2024-02-14T08:03:07.237Z,64.23
2024-02-14T08:06:16.446Z,65.26
2024-02-14T08:09:24.843Z,63.81
2024-02-14T08:12:34.567Z,62.05
2024-02-14T08:15:42.959Z,60.88
2024-02-14T08:18:52.191Z,61.33
2024-02-14T08:22:01.210Z,61.15
2024-02-14T08:25:10.659Z,60.39
2024-02-14T08:28:21.568Z,60.78
2024-02-14T08:31:29.944Z,59.86
2024-02-14T08:34:38.489Z,59.22
2024-02-14T08:37:46.747Z,57.40
2024-02-14T08:40:55.186Z,57.09
2024-02-14T08:44:06.022Z,57.51
2024-02-14T08:47:14.792Z,54.55
2024-02-14T08:50:23.228Z,55.33
2024-02-14T08:53:31.608Z,54.88
2024-02-14T08:56:40.321Z,53.75
2024-02-14T08:59:50.035Z,52.36
2024-02-14T09:03:01.301Z,53.44
2024-02-14T09:06:09.840Z,51.37
2024-02-14T09:09:20.407Z,50.37
2024-02-14T09:12:28.669Z,51.36
2024-02-14T09:15:38.328Z,49.99
2024-02-14T09:18:48.367Z,49.33
2024-02-14T09:21:57.315Z,49.16
2024-02-14T09:25:06.564Z,49.21
2024-02-14T09:28:15.263Z,50.19
2024-02-14T09:31:24.925Z,48.37
2024-02-14T09:34:33.555Z,46.62
2024-02-14T09:37:42.374Z,48.50
2024-02-14T09:40:55.220Z,47.34
2024-02-14T09:44:04.361Z,46.20
2024-02-14T09:47:17.157Z,47.22
2024-02-14T09:50:27.796Z,46.39
2024-02-14T09:53:36.815Z,46.13
2024-02-14T09:56:51.746Z,46.20
2024-02-14T10:00:02.512Z,46.00
2024-02-14T10:03:14.840Z,44.95
2024-02-14T10:06:26.639Z,45.00
2024-02-14T10:09:43.727Z,44.83
2024-02-14T10:12:52.063Z,43.38
2024-02-14T10:16:00.550Z,45.99
2024-02-14T10:19:18.398Z,46.73
2024-02-14T10:22:27.969Z,46.18
2024-02-14T10:25:37.394Z,45.56
2024-02-14T10:28:49.972Z,46.67
2024-02-14T10:31:59.598Z,45.65
2024-02-14T10:35:13.506Z,46.76
2024-02-14T10:38:22.406Z,48.24
2024-02-14T10:41:36.312Z,46.49
2024-02-14T10:44:46.390Z,48.09
2024-02-14T10:47:58.790Z,46.10
2024-02-14T10:51:11.693Z,46.57
2024-02-14T10:54:22.883Z,47.36
2024-02-14T10:57:32.726Z,45.48
2024-02-14T11:00:41.207Z,46.41
2024-02-14T11:03:50.284Z,45.65
2024-02-14T11:07:03.844Z,46.38
2024-02-14T11:10:17.490Z,46.07
2024-02-14T11:13:29.195Z,44.70
2024-02-14T11:16:40.047Z,43.87
2024-02-14T11:19:48.482Z,43.49
2024-02-14T11:23:05.924Z,45.14
2024-02-14T11:26:18.344Z,46.51
2024-02-14T11:29:32.022Z,45.29
2024-02-14T11:32:43.673Z,44.41
2024-02-14T11:35:54.517Z,45.22
2024-02-14T11:39:07.250Z,45.41
2024-02-14T11:42:16.586Z,45.70
2024-02-14T11:45:24.944Z,45.70
2024-02-14T11:48:33.851Z,45.33
2024-02-14T11:51:43.442Z,45.69
2024-02-14T11:54:53.080Z,44.86
2024-02-14T11:58:01.259Z,45.18
2024-02-14T12:01:10.811Z,44.86
2024-02-14T12:04:20.267Z,44.50
2024-02-14T12:07:29.191Z,44.07
2024-02-14T12:10:40.422Z,43.12
2024-02-14T12:13:53.016Z,43.95
2024-02-14T12:17:03.949Z,43.87
2024-02-14T12:20:14.484Z,44.01
2024-02-14T12:23:23.552Z,44.28
2024-02-14T12:26:34.206Z,43.18
2024-02-14T12:29:44.420Z,43.80
2024-02-14T12:33:02.506Z,43.49
2024-02-14T12:36:12.187Z,43.57
2024-02-14T12:39:21.970Z,44.77
2024-02-14T12:42:33.461Z,42.92
2024-02-14T12:45:42.967Z,42.73
2024-02-14T12:48:51.382Z,43.44
2024-02-14T12:51:59.694Z,43.88
2024-02-14T12:55:09.853Z,43.58
2024-02-14T12:58:19.621Z,43.38
2024-02-14T13:01:28.076Z,43.35
2024-02-14T13:04:37.006Z,43.76
2024-02-14T13:07:45.702Z,42.30
2024-02-14T13:10:54.171Z,42.21
2024-02-14T13:14:05.265Z,43.53
2024-02-14T13:17:13.700Z,49.24
2024-02-14T13:20:22.243Z,50.32
2024-02-14T13:23:31.013Z,50.77
2024-02-14T13:26:39.593Z,50.86
2024-02-14T13:29:49.557Z,50.75
2024-02-14T13:32:58.168Z,52.46
2024-02-14T13:36:07.191Z,53.78
2024-02-14T13:39:16.178Z,53.12
2024-02-14T13:42:24.586Z,52.74
2024-02-14T13:45:45.397Z,51.98
2024-02-14T13:48:53.886Z,50.47
2024-02-14T13:52:02.196Z,48.54
2024-02-14T13:55:11.306Z,49.20
2024-02-14T13:58:20.242Z,47.90
2024-02-14T14:01:29.846Z,47.22
2024-02-14T14:04:39.146Z,47.61
2024-02-14T14:07:58.531Z,45.93
2024-02-14T14:11:09.271Z,45.64
2024-02-14T14:14:19.877Z,45.36
2024-02-14T14:17:30.681Z,46.02
2024-02-14T14:20:39.411Z,47.22
2024-02-14T14:23:48.186Z,47.46
2024-02-14T14:26:56.585Z,45.88
2024-02-14T14:30:06.339Z,45.90
2024-02-14T14:33:19.000Z,46.19
2024-02-14T14:36:28.078Z,47.29
2024-02-14T14:39:36.364Z,46.37
2024-02-14T14:42:44.824Z,46.41
2024-02-14T14:45:54.129Z,46.10
2024-02-14T14:49:04.584Z,46.60
2024-02-14T14:52:12.937Z,46.33
2024-02-14T14:55:21.133Z,47.80
2024-02-14T14:58:29.525Z,48.14
2024-02-14T15:01:38.236Z,48.56
2024-02-14T15:04:48.349Z,49.92
2024-02-14T15:07:56.542Z,51.96
2024-02-14T15:11:05.847Z,50.99
2024-02-14T15:14:14.156Z,51.62
2024-02-14T15:17:23.848Z,53.30
2024-02-14T15:20:37.200Z,54.83
2024-02-14T15:23:45.947Z,55.63
2024-02-14T15:27:02.146Z,56.37
2024-02-14T15:30:29.509Z,56.77
2024-02-14T15:33:39.051Z,57.67
2024-02-14T15:36:48.818Z,57.25
2024-02-14T15:39:58.144Z,58.08
2024-02-14T15:43:06.801Z,58.45
2024-02-14T15:46:15.689Z,58.11
2024-02-14T15:49:24.047Z,58.21
2024-02-14T15:52:33.702Z,57.80
2024-02-14T15:55:43.383Z,58.80
2024-02-14T15:58:52.482Z,58.58
2024-02-14T16:02:01.304Z,59.62
2024-02-14T16:05:11.205Z,59.76
2024-02-14T16:08:21.047Z,59.59
2024-02-14T16:11:32.411Z,59.99
2024-02-14T16:14:45.565Z,61.25
2024-02-14T16:17:54.738Z,60.38
2024-02-14T16:21:04.036Z,59.70
2024-02-14T16:24:14.729Z,60.61
2024-02-14T16:27:23.071Z,62.01
2024-02-14T16:30:31.418Z,62.73
2024-02-14T16:33:41.620Z,61.69
2024-02-14T16:36:50.105Z,62.06
2024-02-14T16:39:59.961Z,63.22
2024-02-14T16:43:10.964Z,62.73
2024-02-14T16:46:19.345Z,62.91
2024-02-14T16:49:27.864Z,62.88
2024-02-14T16:52:37.737Z,63.42
2024-02-14T16:55:48.702Z,63.40
2024-02-14T16:58:58.493Z,64.11
2024-02-14T17:02:08.045Z,63.53
2024-02-14T17:05:16.824Z,64.36
2024-02-14T17:08:25.268Z,63.60
2024-02-14T17:11:35.920Z,64.28
2024-02-14T17:14:45.912Z,64.27
2024-02-14T17:17:55.990Z,64.42
2024-02-14T17:21:04.428Z,64.81
2024-02-14T17:24:12.731Z,64.60
2024-02-14T17:27:23.057Z,63.60
2024-02-14T17:30:31.660Z,64.57
2024-02-14T17:33:40.530Z,65.21
2024-02-14T17:36:49.413Z,65.67
2024-02-14T17:39:57.862Z,65.80
2024-02-14T17:43:09.247Z,66.31
2024-02-14T17:46:17.521Z,66.50
2024-02-14T17:49:26.285Z,66.90
2024-02-14T17:52:35.417Z,66.84
2024-02-14T17:55:43.789Z,66.57
2024-02-14T17:58:53.616Z,67.71
2024-02-14T18:02:03.351Z,67.40
2024-02-14T18:05:12.181Z,67.80
2024-02-14T18:08:20.725Z,68.58
2024-02-14T18:11:28.964Z,68.10
2024-02-14T18:14:38.923Z,68.12
2024-02-14T18:17:49.578Z,68.98
2024-02-14T18:20:58.460Z,69.29
2024-02-14T18:24:07.969Z,69.48
2024-02-14T18:27:16.790Z,69.59
2024-02-14T18:30:28.404Z,70.04
2024-02-14T18:33:38.126Z,71.06
2024-02-14T18:36:46.787Z,70.46
2024-02-14T18:39:58.949Z,71.04
2024-02-14T18:43:07.925Z,71.62
2024-02-14T18:46:17.808Z,71.91
2024-02-14T18:49:26.295Z,71.80
2024-02-14T18:52:34.717Z,72.50
2024-02-14T18:55:44.832Z,72.84
2024-02-14T18:58:54.092Z,72.52
2024-02-14T19:02:05.176Z,73.45
2024-02-14T19:05:14.128Z,73.42
2024-02-14T19:08:23.385Z,74.03
2024-02-14T19:11:31.883Z,74.55
2024-02-14T19:14:40.571Z,75.29
2024-02-14T19:17:50.607Z,75.27
2024-02-14T19:20:59.381Z,77.63
2024-02-14T19:24:09.431Z,77.03
2024-02-14T19:27:18.881Z,77.76
2024-02-14T19:30:29.491Z,76.85
2024-02-14T19:33:39.539Z,76.87
2024-02-14T19:36:48.081Z,76.18
2024-02-14T19:39:56.659Z,76.95
2024-02-14T19:43:06.285Z,76.46
2024-02-14T19:46:15.897Z,76.46
2024-02-14T19:49:25.904Z,76.13
2024-02-14T19:52:35.901Z,75.95
2024-02-14T19:55:44.674Z,77.04
2024-02-14T19:58:52.975Z,77.29
2024-02-14T20:02:01.720Z,76.97
2024-02-14T20:05:13.243Z,75.76
2024-02-14T20:08:26.471Z,77.25
2024-02-14T20:11:35.535Z,77.01
2024-02-14T20:14:43.930Z,77.21
2024-02-14T20:17:52.603Z,76.37
2024-02-14T20:21:02.450Z,76.62
2024-02-14T20:24:11.787Z,76.41
2024-02-14T20:27:20.604Z,75.79
2024-02-14T20:30:29.643Z,76.49
2024-02-14T20:33:38.907Z,76.98
2024-02-14T20:36:48.681Z,77.10
2024-02-14T20:39:57.168Z,77.20
2024-02-14T20:43:06.333Z,77.79
2024-02-14T20:46:16.486Z,77.74
2024-02-14T20:49:27.768Z,78.27
2024-02-14T20:52:38.659Z,77.95
2024-02-14T20:55:47.734Z,77.02
2024-02-14T20:59:02.095Z,77.94
2024-02-14T21:02:14.700Z,77.69
2024-02-14T21:05:23.611Z,77.98
2024-02-14T21:08:33.180Z,78.40
2024-02-14T21:11:41.792Z,79.03
2024-02-14T21:14:51.321Z,79.75
2024-02-14T21:17:59.945Z,79.47
2024-02-14T21:21:08.863Z,79.55
2024-02-14T21:24:19.344Z,79.55
2024-02-14T21:27:27.601Z,78.81
2024-02-14T21:30:35.803Z,78.28
2024-02-14T21:33:45.226Z,78.54
2024-02-14T21:36:54.949Z,77.90
2024-02-14T21:40:05.690Z,78.79
2024-02-14T21:43:15.310Z,77.98
2024-02-14T21:46:24.987Z,78.19
2024-02-14T21:49:36.329Z,77.93
2024-02-14T21:52:45.222Z,77.73
2024-02-14T21:55:55.174Z,78.29
2024-02-14T21:59:03.988Z,77.78
2024-02-14T22:02:12.444Z,77.40
2024-02-14T22:05:22.928Z,76.20
2024-02-14T22:08:31.703Z,75.13
2024-02-14T22:11:41.696Z,76.04
2024-02-14T22:14:50.054Z,76.22
2024-02-14T22:17:58.360Z,76.29
2024-02-14T22:21:07.306Z,76.68
2024-02-14T22:24:15.664Z,75.64
2024-02-14T22:27:25.941Z,75.19
2024-02-14T22:30:34.766Z,74.79
2024-02-14T22:33:44.679Z,74.73
2024-02-14T22:36:53.290Z,73.92
2024-02-14T22:40:01.702Z,73.25
2024-02-14T22:43:11.349Z,73.88
2024-02-14T22:46:20.224Z,73.91
2024-02-14T22:49:29.418Z,73.82
2024-02-14T22:52:37.980Z,72.40
2024-02-14T22:55:47.483Z,73.24
2024-02-14T22:58:57.266Z,71.55
2024-02-14T23:02:07.348Z,72.83
2024-02-14T23:05:20.991Z,72.15
2024-02-14T23:08:29.414Z,71.99
2024-02-14T23:11:39.905Z,72.43
2024-02-14T23:14:49.636Z,72.85
2024-02-14T23:17:58.188Z,73.03
2024-02-14T23:21:07.637Z,73.21
2024-02-14T23:24:15.934Z,73.00
2024-02-14T23:27:25.867Z,73.63
2024-02-14T23:30:36.335Z,73.86
2024-02-14T23:33:45.096Z,73.28
2024-02-14T23:36:53.532Z,73.96
2024-02-14T23:40:02.102Z,73.21
2024-02-14T23:43:11.281Z,71.90
2024-02-14T23:46:20.871Z,71.85
2024-02-14T23:49:29.206Z,72.11
2024-02-14T23:52:39.708Z,71.15
2024-02-14T23:55:48.410Z,71.05
2024-02-14T23:58:56.639Z,71.69
